Terminal Aerodrome Forecast
Issued by NWS Hastings, NE

Home | Current Version | Previous Version | Text Only | Print | Product List | Glossary On
Versions: 1 2 3 4 5 6 7 8 9 10 11 12
000
FTUS45 KGID 280553
TAFEAR
TAF
KEAR 280553Z 2806/0106 11007KT 6SM BR BKN200
     FM280800 33009KT P6SM BKN200
     FM281200 34011KT P6SM SCT015 BKN150
     FM281800 34013KT P6SM VCSH SCT015 BKN040
     FM010000 31012KT P6SM SCT040 BKN100
      AMD LTD TO CLD VIS AND WIND=

USA.gov is the U.S. government's official web portal to all federal, state and local government web resources and services.